createdAt,value
2022-11-12T00:04:39.048Z,23.10
2022-11-12T00:09:22.496Z,22.93
2022-11-12T00:14:06.164Z,23.10
2022-11-12T00:18:51.152Z,25.10
2022-11-12T00:23:34.642Z,23.83
2022-11-12T00:28:38.701Z,24.77
2022-11-12T00:33:42.988Z,24.27
2022-11-12T00:38:47.981Z,25.73
2022-11-12T00:43:51.490Z,25.57
2022-11-12T00:48:55.100Z,25.10
2022-11-12T00:54:00.106Z,24.23
2022-11-12T00:58:44.293Z,24.57
2022-11-12T01:03:29.890Z,24.27
2022-11-12T01:08:13.711Z,23.53
2022-11-12T01:12:58.525Z,22.80
2022-11-12T01:17:41.986Z,23.47
2022-11-12T01:22:25.979Z,23.60
2022-11-12T01:27:09.493Z,23.27
2022-11-12T01:31:54.433Z,24.60
2022-11-12T01:36:40.854Z,23.80
2022-11-12T01:41:26.756Z,24.80
2022-11-12T01:46:18.473Z,23.67
2022-11-12T01:51:06.463Z,23.03
2022-11-12T01:55:50.501Z,24.07
2022-11-12T02:00:33.956Z,24.83
2022-11-12T02:05:18.961Z,24.70
2022-11-12T02:10:05.732Z,24.20
2022-11-12T02:14:49.220Z,24.33
2022-11-12T02:19:32.658Z,24.00
2022-11-12T02:24:38.143Z,22.17
2022-11-12T02:29:21.704Z,23.93
2022-11-12T02:34:05.430Z,22.77
2022-11-12T02:38:48.850Z,20.97
2022-11-12T02:43:33.664Z,21.77
2022-11-12T02:48:19.344Z,22.23
2022-11-12T02:53:02.896Z,20.20
2022-11-12T02:57:46.322Z,18.77
2022-11-12T03:02:31.166Z,19.47
2022-11-12T03:07:14.878Z,17.97
2022-11-12T03:11:58.402Z,19.20
2022-11-12T03:16:41.832Z,20.57
2022-11-12T03:21:26.711Z,19.70
2022-11-12T03:26:10.191Z,21.70
2022-11-12T03:30:57.845Z,20.97
2022-11-12T03:35:41.635Z,19.13
2022-11-12T03:40:27.108Z,19.40
2022-11-12T03:45:10.722Z,18.80
2022-11-12T03:49:54.124Z,19.43
2022-11-12T03:54:37.547Z,17.53
2022-11-12T03:59:22.340Z,16.60
2022-11-12T04:04:05.971Z,16.00
2022-11-12T04:08:48.607Z,16.50
2022-11-12T04:13:32.118Z,14.77
2022-11-12T04:18:33.860Z,15.27
2022-11-12T04:23:17.260Z,16.50
2022-11-12T04:28:00.676Z,19.93
2022-11-12T04:32:49.547Z,19.07
2022-11-12T04:37:45.462Z,18.67
2022-11-12T04:42:46.069Z,18.80
2022-11-12T04:47:31.087Z,18.03
2022-11-12T04:52:14.590Z,17.37
2022-11-12T04:56:59.670Z,17.77
2022-11-12T05:01:43.314Z,17.43
2022-11-12T05:06:44.299Z,16.53
2022-11-12T05:11:27.880Z,19.70
2022-11-12T05:16:12.739Z,18.20
2022-11-12T05:20:56.114Z,17.60
2022-11-12T05:25:39.665Z,17.87
2022-11-12T05:30:23.184Z,15.93
2022-11-12T05:35:08.967Z,16.70
2022-11-12T05:39:52.593Z,17.60
2022-11-12T05:44:36.358Z,19.07
2022-11-12T05:49:19.952Z,17.93
2022-11-12T05:54:05.184Z,17.83
2022-11-12T05:58:48.670Z,18.33
2022-11-12T06:03:32.472Z,18.00
2022-11-12T06:08:15.991Z,18.27
2022-11-12T06:13:01.053Z,17.43
2022-11-12T06:17:44.645Z,15.87
2022-11-12T06:22:28.101Z,16.77
2022-11-12T06:27:11.532Z,17.83
2022-11-12T06:31:56.429Z,17.30
2022-11-12T06:36:40.559Z,16.93
2022-11-12T06:41:24.092Z,15.83
2022-11-12T06:46:09.788Z,17.33
2022-11-12T06:50:54.616Z,16.80
2022-11-12T06:55:38.697Z,18.20
2022-11-12T07:00:22.411Z,17.03
2022-11-12T07:05:06.266Z,17.63
2022-11-12T07:09:51.208Z,16.20
2022-11-12T07:14:34.623Z,16.53
2022-11-12T07:19:18.042Z,16.47
2022-11-12T07:24:01.489Z,15.27
2022-11-12T07:28:46.808Z,14.13
2022-11-12T07:33:30.823Z,13.97
2022-11-12T07:38:14.319Z,13.70
2022-11-12T07:43:00.223Z,13.77
2022-11-12T07:47:45.055Z,12.47
2022-11-12T07:52:28.487Z,10.87
2022-11-12T07:57:12.113Z,12.13
2022-11-12T08:01:55.704Z,11.57
2022-11-12T08:06:40.700Z,12.43
2022-11-12T08:11:24.931Z,12.40
2022-11-12T08:16:09.291Z,12.00
2022-11-12T08:20:53.099Z,11.03
2022-11-12T08:25:38.211Z,10.60
2022-11-12T08:30:21.672Z,11.50
2022-11-12T08:35:05.528Z,11.10
2022-11-12T08:39:48.988Z,10.03
2022-11-12T08:44:33.949Z,10.23
2022-11-12T08:49:17.540Z,10.07
2022-11-12T08:54:01.270Z,9.87
2022-11-12T08:58:44.816Z,11.27
2022-11-12T09:03:29.870Z,11.50
2022-11-12T09:08:15.683Z,12.40
2022-11-12T09:12:59.350Z,11.97
2022-11-12T09:17:42.948Z,13.47
2022-11-12T09:22:27.923Z,12.23
2022-11-12T09:27:11.423Z,13.63
2022-11-12T09:31:55.487Z,14.00
2022-11-12T09:36:40.240Z,14.10
2022-11-12T09:41:34.736Z,13.87
2022-11-12T09:46:29.486Z,13.03
2022-11-12T09:51:18.516Z,11.60
2022-11-12T09:56:06.733Z,12.60
2022-11-12T10:00:56.772Z,13.00
2022-11-12T10:05:48.956Z,13.03
2022-11-12T10:10:41.022Z,13.43
2022-11-12T10:15:56.566Z,13.57
2022-11-12T10:20:49.600Z,13.73
2022-11-12T10:25:34.213Z,14.43
2022-11-12T10:30:19.854Z,14.90
2022-11-12T10:35:03.329Z,15.57
2022-11-12T10:39:48.431Z,14.43
2022-11-12T10:44:32.003Z,13.40
2022-11-12T10:49:25.378Z,14.40
2022-11-12T10:54:29.234Z,13.20
2022-11-12T10:59:17.595Z,13.80
2022-11-12T11:04:01.113Z,15.23
2022-11-12T11:08:46.904Z,15.37
2022-11-12T11:13:30.347Z,13.77
2022-11-12T11:18:15.782Z,12.93
2022-11-12T11:23:04.719Z,13.77
2022-11-12T11:28:00.986Z,12.87
2022-11-12T11:33:04.884Z,12.93
2022-11-12T11:38:01.766Z,12.37
2022-11-12T11:42:58.284Z,12.60
2022-11-12T11:48:01.329Z,12.20
2022-11-12T11:52:56.164Z,13.80
2022-11-12T11:57:46.291Z,12.07
2022-11-12T12:02:47.734Z,12.00
2022-11-12T12:07:39.007Z,11.40
2022-11-12T12:12:43.573Z,12.27
2022-11-12T12:17:38.507Z,12.10
2022-11-12T12:22:31.581Z,11.60
2022-11-12T12:27:17.760Z,11.00
2022-11-12T12:32:12.035Z,11.80
2022-11-12T12:37:02.520Z,11.30
2022-11-12T12:41:54.122Z,11.90
2022-11-12T12:46:43.879Z,11.77
2022-11-12T12:51:31.063Z,11.37
2022-11-12T12:56:49.367Z,11.47
2022-11-12T13:01:35.524Z,12.90
2022-11-12T13:06:27.614Z,12.20
2022-11-12T13:11:52.783Z,12.30
2022-11-12T13:16:58.390Z,11.23
2022-11-12T13:21:45.286Z,12.63
2022-11-12T13:26:53.894Z,12.17
2022-11-12T13:31:37.688Z,12.63
2022-11-12T13:36:31.280Z,11.93
2022-11-12T13:41:19.652Z,12.50
2022-11-12T13:46:26.566Z,12.23
2022-11-12T13:51:16.626Z,13.20
2022-11-12T13:56:00.719Z,11.80
2022-11-12T14:00:53.443Z,11.50
2022-11-12T14:05:39.567Z,11.67
2022-11-12T14:10:34.370Z,12.90
2022-11-12T14:15:33.239Z,12.30
2022-11-12T14:20:29.231Z,11.70
2022-11-12T14:25:19.512Z,11.87
2022-11-12T14:30:12.531Z,11.90
2022-11-12T14:34:56.070Z,12.90
2022-11-12T14:39:43.285Z,13.40
2022-11-12T14:44:34.019Z,14.10
2022-11-12T14:49:22.921Z,13.80
2022-11-12T14:54:08.750Z,15.70
2022-11-12T14:58:53.770Z,14.37
2022-11-12T15:03:38.742Z,13.70
2022-11-12T15:08:34.856Z,14.00
2022-11-12T15:13:20.792Z,14.67
2022-11-12T15:18:07.398Z,14.43
2022-11-12T15:22:54.141Z,14.13
2022-11-12T15:27:40.229Z,14.77
2022-11-12T15:32:35.365Z,14.00
2022-11-12T15:37:26.827Z,14.13
2022-11-12T15:42:18.724Z,12.73
2022-11-12T15:47:03.155Z,15.00
2022-11-12T15:51:46.877Z,14.97
2022-11-12T15:56:31.099Z,14.87
2022-11-12T16:01:16.105Z,15.37
2022-11-12T16:06:05.547Z,13.93
2022-11-12T16:10:52.312Z,15.57
2022-11-12T16:15:36.283Z,14.90
2022-11-12T16:20:24.033Z,13.90
2022-11-12T16:25:08.390Z,13.67
2022-11-12T16:29:52.120Z,13.60
2022-11-12T16:34:35.612Z,14.67
2022-11-12T16:39:20.709Z,14.23
2022-11-12T16:44:04.499Z,15.97
2022-11-12T16:48:48.053Z,16.60
2022-11-12T16:53:32.004Z,14.60
2022-11-12T16:58:17.364Z,15.37
2022-11-12T17:03:01.218Z,15.63
2022-11-12T17:07:45.076Z,15.43
2022-11-12T17:12:29.372Z,14.97
2022-11-12T17:17:15.216Z,15.93
2022-11-12T17:22:00.221Z,15.53
2022-11-12T17:26:44.865Z,17.23
2022-11-12T17:31:29.062Z,15.90
2022-11-12T17:36:17.693Z,17.47
2022-11-12T17:41:01.340Z,16.30
2022-11-12T17:45:51.144Z,16.10
2022-11-12T17:50:35.250Z,16.93
2022-11-12T17:55:21.429Z,16.17
2022-11-12T18:00:06.241Z,15.97
2022-11-12T18:04:52.862Z,16.13
2022-11-12T18:09:37.546Z,15.33
2022-11-12T18:14:23.802Z,17.37
2022-11-12T18:19:11.168Z,15.90
2022-11-12T18:23:55.220Z,17.80
2022-11-12T18:28:39.863Z,16.93
2022-11-12T18:33:25.819Z,17.87
2022-11-12T18:38:10.695Z,16.73
2022-11-12T18:42:56.002Z,19.07
2022-11-12T18:47:40.591Z,18.20
2022-11-12T18:52:26.999Z,18.50
2022-11-12T18:57:12.426Z,18.17
2022-11-12T19:01:57.460Z,18.27
2022-11-12T19:06:44.742Z,17.80
2022-11-12T19:11:30.687Z,17.53
2022-11-12T19:16:17.479Z,17.77
2022-11-12T19:21:07.138Z,18.67
2022-11-12T19:25:51.329Z,17.53
2022-11-12T19:30:36.894Z,19.33
2022-11-12T19:35:21.655Z,18.10
2022-11-12T19:40:06.497Z,16.17
2022-11-12T19:44:51.346Z,15.97
2022-11-12T19:49:36.520Z,15.67
2022-11-12T19:54:20.253Z,15.83
2022-11-12T19:59:06.440Z,16.70
2022-11-12T20:03:50.386Z,15.70
2022-11-12T20:08:36.750Z,15.60
2022-11-12T20:13:20.791Z,15.93
2022-11-12T20:18:04.847Z,18.33
2022-11-12T20:22:48.817Z,19.20
2022-11-12T20:27:34.910Z,16.07
2022-11-12T20:32:19.478Z,17.50
2022-11-12T20:43:17.495Z,16.80
2022-11-12T20:48:02.357Z,15.10
2022-11-12T20:52:46.313Z,16.07
2022-11-12T20:57:30.647Z,17.30
2022-11-12T21:02:16.023Z,17.47
2022-11-12T21:07:05.114Z,16.57
2022-11-12T21:11:50.384Z,16.30
2022-11-12T21:16:34.859Z,15.70
2022-11-12T21:21:21.593Z,16.67
2022-11-12T21:26:07.667Z,16.10
2022-11-12T21:30:53.308Z,17.50
2022-11-12T21:35:37.606Z,17.60
2022-11-12T21:40:25.284Z,17.90
2022-11-12T21:45:09.832Z,18.43
2022-11-12T21:49:54.505Z,18.53
2022-11-12T21:54:38.052Z,20.90
2022-11-12T21:59:23.092Z,19.77
2022-11-12T22:04:08.467Z,18.17
2022-11-12T22:08:53.604Z,17.90
2022-11-12T22:13:37.452Z,18.90
2022-11-12T22:18:22.457Z,19.57
2022-11-12T22:23:06.357Z,19.17
2022-11-12T22:27:51.077Z,18.50
2022-11-12T22:32:34.543Z,19.03
2022-11-12T22:37:19.440Z,19.80
2022-11-12T22:42:03.025Z,19.10
2022-11-12T22:46:46.587Z,18.13
2022-11-12T22:51:32.374Z,18.03
2022-11-12T22:56:18.267Z,18.57
